Time;durP1;ratioP1;P1;durP2;ratioP2;P2;SDS_P1;SDS_P2;PMS_P1;PMS_P2;Temp;Humidity;BMP_temperature;BMP_pressure;BME280_temperature;BME280_humidity;BME280_pressure;Samples;Min_cycle;Max_cycle;Signal;HPM_P1;HPM_P2
2022/12/07 00:01:42;;;;;;;8.50;1.77;;;4.40;99.90;;;;;;5074269;28;20425;-79
2022/12/07 00:04:12;;;;;;;16.77;2.70;;;4.50;99.90;;;;;;5080309;28;20459;-79
2022/12/07 00:06:40;;;;;;;6.55;1.70;;;4.60;99.90;;;;;;5069834;28;20432;-82
2022/12/07 00:09:09;;;;;;;10.63;2.65;;;4.50;99.90;;;;;;5084143;28;20417;-78
2022/12/07 00:11:34;;;;;;;6.70;2.80;;;4.50;99.90;;;;;;5093462;28;20463;-78
2022/12/07 00:14:04;;;;;;;2.65;0.70;;;4.60;99.90;;;;;;5104941;28;20503;-78
2022/12/07 00:16:32;;;;;;;7.18;1.50;;;4.70;99.90;;;;;;5087973;28;20485;-78
2022/12/07 00:18:58;;;;;;;6.95;1.20;;;4.70;99.90;;;;;;5085784;28;20419;-79
2022/12/07 00:21:27;;;;;;;8.80;2.05;;;4.70;99.90;;;;;;5073606;28;20475;-79
2022/12/07 00:23:54;;;;;;;7.45;1.40;;;4.90;99.90;;;;;;5095648;28;20463;-79
2022/12/07 00:26:27;;;;;;;10.23;1.92;;;4.90;99.90;;;;;;5098835;28;20514;-79
2022/12/07 00:28:59;;;;;;;11.18;1.70;;;4.90;99.90;;;;;;5104490;28;20421;-80
2022/12/07 00:31:27;;;;;;;8.70;1.60;;;4.80;99.90;;;;;;5067809;28;20429;-81
2022/12/07 00:33:53;;;;;;;9.20;1.25;;;4.80;99.90;;;;;;5060814;28;20471;-80
2022/12/07 00:36:21;;;;;;;7.55;1.30;;;5.00;99.90;;;;;;5102386;27;20426;-79
2022/12/07 00:38:47;;;;;;;6.97;1.10;;;5.00;99.90;;;;;;5106836;28;20411;-80
2022/12/07 00:41:18;;;;;;;7.57;0.80;;;5.00;99.90;;;;;;5071249;28;20417;-79
2022/12/07 00:43:46;;;;;;;5.63;1.05;;;5.10;99.90;;;;;;5084561;28;20430;-79
2022/12/07 00:46:12;;;;;;;8.63;1.08;;;5.10;99.90;;;;;;5085511;28;20423;-78
2022/12/07 00:48:38;;;;;;;5.70;1.00;;;5.10;99.90;;;;;;5081086;27;20424;-79
2022/12/07 00:51:05;;;;;;;5.70;1.20;;;5.10;99.90;;;;;;5104235;27;20440;-79
2022/12/07 00:53:33;;;;;;;3.80;0.93;;;5.00;99.90;;;;;;5072291;28;20825;-79
2022/12/07 00:56:19;;;;;;;4.07;0.80;;;5.10;99.90;;;;;;5085925;28;20420;-78
2022/12/07 00:58:59;;;;;;;9.02;1.33;;;5.10;99.90;;;;;;5091976;28;20469;-79
2022/12/07 01:01:26;;;;;;;6.50;0.90;;;4.90;99.90;;;;;;5110397;28;20400;-79
2022/12/07 01:03:52;;;;;;;6.45;1.17;;;4.90;99.90;;;;;;5109778;28;20790;-78
2022/12/07 01:06:21;;;;;;;5.13;1.20;;;4.90;99.90;;;;;;5097903;27;20424;-78
2022/12/07 01:08:46;;;;;;;5.05;1.17;;;4.80;99.90;;;;;;5125592;27;20426;-78
2022/12/07 01:11:15;;;;;;;5.60;1.10;;;4.70;99.90;;;;;;5099326;28;20416;-79
2022/12/07 01:13:41;;;;;;;6.95;1.08;;;4.80;99.90;;;;;;5093950;28;20461;-80
2022/12/07 01:16:07;;;;;;;8.15;1.30;;;4.70;99.90;;;;;;5071274;28;21357;-79
2022/12/07 01:18:35;;;;;;;8.18;1.88;;;4.80;99.90;;;;;;5088358;28;20574;-79
2022/12/07 01:21:07;;;;;;;9.05;1.70;;;4.60;99.90;;;;;;5095231;28;20425;-79
2022/12/07 01:23:35;;;;;;;9.20;1.73;;;4.90;99.90;;;;;;5096608;27;20796;-79
2022/12/07 01:26:05;;;;;;;8.32;1.38;;;4.90;99.90;;;;;;5097652;28;20412;-79
2022/12/07 01:28:31;;;;;;;9.02;1.45;;;4.80;99.90;;;;;;5099822;28;20428;-79
2022/12/07 01:31:00;;;;;;;6.90;1.65;;;4.80;99.90;;;;;;5089671;28;20414;-79
2022/12/07 01:33:28;;;;;;;9.90;2.33;;;4.80;99.90;;;;;;5093294;28;20470;-78
2022/12/07 01:35:54;;;;;;;12.25;2.25;;;4.70;99.90;;;;;;5065387;28;20453;-77
2022/12/07 01:38:20;;;;;;;7.22;1.63;;;4.80;99.90;;;;;;5108652;28;20428;-78
2022/12/07 01:40:54;;;;;;;10.77;1.38;;;4.70;99.90;;;;;;5089698;28;20420;-77
2022/12/07 01:43:20;;;;;;;9.07;1.50;;;4.60;99.90;;;;;;5107094;28;20423;-79
2022/12/07 01:45:46;;;;;;;12.77;2.17;;;4.70;99.90;;;;;;5109875;27;20420;-79
2022/12/07 01:48:16;;;;;;;12.23;2.72;;;4.50;99.90;;;;;;5089828;28;20426;-79
2022/12/07 01:50:44;;;;;;;12.90;1.73;;;4.60;99.90;;;;;;5087728;28;20418;-78
2022/12/07 01:53:11;;;;;;;9.75;1.98;;;4.60;99.90;;;;;;5088381;28;20422;-79
2022/12/07 01:55:41;;;;;;;11.30;1.58;;;4.40;99.90;;;;;;5070433;28;20910;-78
2022/12/07 01:58:08;;;;;;;11.05;2.30;;;4.40;99.90;;;;;;5086901;28;21167;-78
2022/12/07 02:00:34;;;;;;;7.75;1.40;;;4.50;99.90;;;;;;5072116;28;20416;-78
2022/12/07 02:03:22;;;;;;;9.05;1.27;;;4.50;99.90;;;;;;5153424;22;20489;-79
2022/12/07 02:05:50;;;;;;;9.43;1.80;;;4.60;99.90;;;;;;5091171;28;20418;-80
2022/12/07 02:08:17;;;;;;;7.82;1.00;;;4.80;99.90;;;;;;5088682;28;20429;-79
2022/12/07 02:10:43;;;;;;;5.72;1.00;;;4.70;99.90;;;;;;5052336;28;20508;-78
2022/12/07 02:13:11;;;;;;;3.37;0.73;;;4.80;99.90;;;;;;5072374;28;20429;-78
2022/12/07 02:15:51;;;;;;;7.82;1.10;;;4.80;99.90;;;;;;5065329;28;20434;-80
2022/12/07 02:18:55;;;;;;;9.10;2.00;;;4.80;99.90;;;;;;5049122;28;20563;-77
2022/12/07 02:21:27;;;;;;;7.95;1.45;;;4.80;99.90;;;;;;5066246;28;20636;-78
2022/12/07 02:24:30;;;;;;;4.30;1.55;;;4.80;99.90;;;;;;5037109;28;20431;-78
2022/12/07 02:27:02;;;;;;;11.10;2.50;;;4.70;99.90;;;;;;5084895;28;20436;-79
2022/12/07 02:29:33;;;;;;;4.55;1.42;;;4.80;99.90;;;;;;5076691;28;20418;-79
2022/12/07 02:32:22;;;;;;;8.93;1.80;;;4.70;99.90;;;;;;5089472;28;20410;-78
2022/12/07 02:34:51;;;;;;;7.90;1.40;;;4.70;99.90;;;;;;5090188;28;20426;-78
2022/12/07 02:37:34;;;;;;;6.43;1.15;;;4.60;99.90;;;;;;5090275;28;20470;-79
2022/12/07 02:40:24;;;;;;;7.63;1.42;;;4.60;99.90;;;;;;5085727;28;20404;-78
2022/12/07 02:43:08;;;;;;;9.50;2.00;;;4.60;99.90;;;;;;5034932;28;20758;-78
2022/12/07 02:45:38;;;;;;;5.30;1.15;;;4.60;99.90;;;;;;5053353;28;20426;-78
2022/12/07 02:48:05;;;;;;;6.38;1.20;;;4.60;99.90;;;;;;5085585;28;20418;-78
2022/12/07 02:50:30;;;;;;;6.88;0.88;;;4.50;99.90;;;;;;5067734;28;20416;-79
2022/12/07 02:52:56;;;;;;;7.85;1.48;;;4.60;99.90;;;;;;5076840;28;20506;-78
2022/12/07 02:55:28;;;;;;;5.75;0.75;;;4.50;99.90;;;;;;5072951;28;20761;-79
2022/12/07 02:58:06;;;;;;;10.15;1.60;;;4.40;99.90;;;;;;5070875;28;20430;-80
2022/12/07 03:00:41;;;;;;;8.45;1.58;;;4.50;99.90;;;;;;5046261;28;20430;-78
2022/12/07 03:03:12;;;;;;;10.07;1.73;;;4.40;99.90;;;;;;5088246;28;20421;-78
2022/12/07 03:06:04;;;;;;;10.68;2.03;;;4.40;99.90;;;;;;5089337;28;20501;-78
2022/12/07 03:08:48;;;;;;;9.15;1.45;;;4.30;99.90;;;;;;5065348;28;20425;-80
2022/12/07 03:11:34;;;;;;;7.10;1.40;;;4.30;99.90;;;;;;5070973;28;20764;-78
2022/12/07 03:14:15;;;;;;;7.32;1.40;;;4.30;99.90;;;;;;5059406;28;20484;-79
2022/12/07 03:16:53;;;;;;;10.30;1.20;;;4.30;99.90;;;;;;5078082;28;20430;-78
2022/12/07 03:19:22;;;;;;;11.75;2.03;;;4.50;99.90;;;;;;5044395;28;20453;-79
2022/12/07 03:22:19;;;;;;;13.50;3.25;;;4.50;99.90;;;;;;5087442;28;20833;-79
2022/12/07 03:24:58;;;;;;;8.00;1.58;;;4.40;99.90;;;;;;5067851;28;21324;-79
2022/12/07 03:27:32;;;;;;;10.80;2.30;;;4.40;99.90;;;;;;5083452;28;20517;-79
2022/12/07 03:30:10;;;;;;;11.18;2.80;;;4.30;99.90;;;;;;5072860;28;20414;-78
2022/12/07 03:33:04;;;;;;;7.95;1.40;;;4.30;99.90;;;;;;5069766;28;20979;-80
2022/12/07 03:35:36;;;;;;;11.43;1.70;;;4.20;99.90;;;;;;5059836;28;20496;-79
2022/12/07 03:38:15;;;;;;;12.13;1.77;;;4.10;99.90;;;;;;5051963;28;20427;-78
2022/12/07 03:40:50;;;;;;;9.93;1.23;;;4.20;99.90;;;;;;5083650;28;20437;-78
2022/12/07 03:43:18;;;;;;;9.48;1.92;;;4.20;99.90;;;;;;5089280;28;20807;-79
2022/12/07 03:45:53;;;;;;;9.32;1.30;;;4.10;99.90;;;;;;5089157;28;20422;-78
2022/12/07 03:48:31;;;;;;;8.57;1.30;;;3.90;99.90;;;;;;5073627;28;20456;-78
2022/12/07 03:51:14;;;;;;;8.27;1.52;;;4.10;99.90;;;;;;5050825;28;20452;-78
2022/12/07 03:53:46;;;;;;;7.63;1.10;;;4.10;99.90;;;;;;5053367;28;20438;-77
2022/12/07 03:56:12;;;;;;;10.00;1.70;;;4.00;99.90;;;;;;5081816;28;20532;-79
2022/12/07 03:58:39;;;;;;;8.85;1.33;;;4.00;99.90;;;;;;5064415;28;20435;-78
2022/12/07 04:01:05;;;;;;;6.95;1.17;;;4.10;99.90;;;;;;5079743;28;20413;-78
2022/12/07 04:03:31;;;;;;;7.25;1.35;;;4.20;99.90;;;;;;5087078;28;20814;-78
2022/12/07 04:05:58;;;;;;;11.35;2.10;;;4.20;99.90;;;;;;5085815;28;20475;-78
2022/12/07 04:08:24;;;;;;;7.50;1.05;;;4.30;99.90;;;;;;5079782;28;20447;-78
2022/12/07 04:10:50;;;;;;;10.18;1.52;;;4.30;99.90;;;;;;5078641;28;20453;-78
2022/12/07 04:13:15;;;;;;;6.38;1.48;;;4.50;99.90;;;;;;5069881;28;20832;-78
2022/12/07 04:15:41;;;;;;;7.05;1.70;;;4.50;99.90;;;;;;5069591;28;20461;-78
2022/12/07 04:18:07;;;;;;;11.00;2.30;;;4.60;99.90;;;;;;5074354;28;20439;-78
2022/12/07 04:20:32;;;;;;;10.52;1.88;;;4.50;99.90;;;;;;5054925;28;20421;-78
2022/12/07 04:22:58;;;;;;;8.10;1.40;;;4.50;99.90;;;;;;5086522;28;20410;-77
2022/12/07 04:25:23;;;;;;;7.70;1.55;;;4.40;99.90;;;;;;5076944;28;20879;-78
2022/12/07 04:27:49;;;;;;;9.50;1.58;;;4.40;99.90;;;;;;5057835;28;20485;-78
2022/12/07 04:30:15;;;;;;;12.18;2.00;;;4.50;99.90;;;;;;5050228;28;20412;-78
2022/12/07 04:32:41;;;;;;;9.82;1.95;;;4.50;99.90;;;;;;5082107;28;20919;-80
2022/12/07 04:35:07;;;;;;;8.68;1.65;;;4.40;99.90;;;;;;5085690;28;20927;-78
2022/12/07 04:37:33;;;;;;;6.35;1.00;;;4.40;99.90;;;;;;5076757;28;20513;-79
2022/12/07 04:39:59;;;;;;;9.25;1.50;;;4.40;99.90;;;;;;5086559;28;20555;-78
2022/12/07 04:42:24;;;;;;;8.50;1.10;;;4.40;99.90;;;;;;5087195;28;20417;-79
2022/12/07 04:44:50;;;;;;;8.43;1.13;;;4.20;99.90;;;;;;5085373;28;20733;-78
2022/12/07 04:47:16;;;;;;;10.30;1.50;;;4.20;99.90;;;;;;5086295;28;21086;-78
2022/12/07 04:49:42;;;;;;;7.93;1.58;;;4.20;99.90;;;;;;5060549;28;20451;-78
2022/12/07 04:52:08;;;;;;;6.72;1.38;;;4.10;99.90;;;;;;5079012;28;20426;-78
2022/12/07 04:54:33;;;;;;;6.80;1.10;;;4.10;99.90;;;;;;5086271;28;20402;-78
2022/12/07 04:56:59;;;;;;;6.63;1.10;;;4.10;99.90;;;;;;5078549;28;20480;-76
2022/12/07 04:59:25;;;;;;;7.20;1.75;;;4.20;99.90;;;;;;5083035;28;20426;-78
2022/12/07 05:01:50;;;;;;;5.40;1.30;;;4.10;99.90;;;;;;5068977;28;20406;-78
2022/12/07 05:04:17;;;;;;;11.05;1.70;;;4.00;99.90;;;;;;5069919;28;20883;-78
2022/12/07 05:06:43;;;;;;;10.00;2.08;;;3.90;99.90;;;;;;5086768;28;20402;-78
2022/12/07 05:09:09;;;;;;;8.40;1.85;;;4.00;99.90;;;;;;5086646;28;20931;-78
2022/12/07 05:11:40;;;;;;;10.37;1.20;;;4.00;99.90;;;;;;5086591;28;20915;-79
2022/12/07 05:14:15;;;;;;;6.30;1.20;;;3.90;99.90;;;;;;5083145;28;20425;-79
2022/12/07 05:16:42;;;;;;;7.05;1.30;;;3.90;99.90;;;;;;5067412;28;20765;-78
2022/12/07 05:19:09;;;;;;;5.60;1.17;;;3.90;99.90;;;;;;5069315;28;20928;-78
2022/12/07 05:21:35;;;;;;;6.13;1.40;;;3.80;99.90;;;;;;5066600;28;20426;-79
2022/12/07 05:24:01;;;;;;;7.55;1.50;;;3.70;99.90;;;;;;5085938;28;20441;-78
2022/12/07 05:26:28;;;;;;;7.93;1.50;;;3.80;99.90;;;;;;5087225;28;20398;-78
2022/12/07 05:28:54;;;;;;;8.18;1.30;;;3.80;99.90;;;;;;5078737;28;20455;-77
2022/12/07 05:31:21;;;;;;;6.68;1.25;;;3.80;99.90;;;;;;5066483;28;20403;-77
2022/12/07 05:33:46;;;;;;;8.30;1.98;;;3.90;99.90;;;;;;5069694;28;20434;-77
2022/12/07 05:36:12;;;;;;;13.43;1.95;;;4.10;99.90;;;;;;5087357;28;20413;-77
2022/12/07 05:38:38;;;;;;;8.65;1.88;;;3.90;99.90;;;;;;5071646;28;20430;-78
2022/12/07 05:41:06;;;;;;;5.40;1.20;;;4.00;99.90;;;;;;5070871;28;20417;-78
2022/12/07 05:43:32;;;;;;;9.63;1.50;;;4.10;99.90;;;;;;5079087;28;20467;-75
2022/12/07 05:45:57;;;;;;;9.18;2.03;;;4.20;99.90;;;;;;5054991;28;20509;-76
2022/12/07 05:48:23;;;;;;;10.00;1.30;;;4.20;99.90;;;;;;5050907;28;20419;-76
2022/12/07 05:50:50;;;;;;;9.05;1.48;;;4.30;99.90;;;;;;5077877;28;20417;-75
2022/12/07 05:53:16;;;;;;;8.23;1.55;;;4.30;99.90;;;;;;5055595;28;20519;-75
2022/12/07 05:55:42;;;;;;;10.90;1.92;;;4.40;99.90;;;;;;5073196;28;20428;-76
2022/12/07 06:00:55;;;;;;;9.05;1.77;;;4.30;99.90;;;;;;5054133;28;20573;-74
2022/12/07 06:03:20;;;;;;;9.40;1.63;;;4.30;99.90;;;;;;5058823;28;20513;-74
2022/12/07 06:05:46;;;;;;;10.80;2.85;;;4.50;99.90;;;;;;5069389;28;20469;-74
2022/12/07 06:08:12;;;;;;;10.40;2.47;;;4.40;99.90;;;;;;5055577;28;20411;-74
2022/12/07 06:10:37;;;;;;;12.82;2.67;;;4.30;99.90;;;;;;5087929;28;20446;-73
2022/12/07 06:13:03;;;;;;;12.10;2.03;;;4.40;99.90;;;;;;5090159;28;20497;-74
2022/12/07 06:15:28;;;;;;;8.18;1.17;;;4.40;99.90;;;;;;5086721;28;20418;-74
2022/12/07 06:17:54;;;;;;;10.65;1.60;;;4.20;99.90;;;;;;5054611;28;20427;-74
2022/12/07 06:20:20;;;;;;;8.55;1.92;;;4.30;99.90;;;;;;5086578;28;20494;-74
2022/12/07 06:22:45;;;;;;;10.52;2.35;;;4.30;99.90;;;;;;5069855;28;20772;-74
2022/12/07 06:25:11;;;;;;;6.03;1.55;;;4.30;99.90;;;;;;5054630;28;20418;-74
2022/12/07 06:27:37;;;;;;;9.07;1.48;;;4.40;99.90;;;;;;5069975;28;20434;-75
2022/12/07 06:30:06;;;;;;;22.30;2.00;;;4.40;99.90;;;;;;5089008;28;20418;-74
2022/12/07 06:32:33;;;;;;;7.95;1.33;;;4.30;99.90;;;;;;5051019;28;20423;-74
2022/12/07 06:34:59;;;;;;;6.60;1.17;;;4.30;99.90;;;;;;5068922;28;20414;-74
2022/12/07 06:37:25;;;;;;;7.00;1.23;;;4.30;99.90;;;;;;5088712;28;20521;-74
2022/12/07 06:39:51;;;;;;;7.60;1.17;;;4.30;99.90;;;;;;5090034;28;20402;-74
2022/12/07 06:42:16;;;;;;;6.03;0.90;;;4.30;99.90;;;;;;5071282;28;20473;-74
2022/12/07 06:44:42;;;;;;;6.80;1.70;;;4.40;99.90;;;;;;5071074;28;20414;-74
2022/12/07 06:47:09;;;;;;;5.43;1.00;;;4.30;99.90;;;;;;5036126;28;20431;-74
2022/12/07 06:49:35;;;;;;;8.90;1.30;;;4.20;99.90;;;;;;5058362;28;20420;-73
2022/12/07 06:52:00;;;;;;;9.55;1.27;;;4.30;99.90;;;;;;5070223;28;20430;-74
2022/12/07 06:54:26;;;;;;;7.47;1.02;;;4.30;99.90;;;;;;5085347;28;20813;-73
2022/12/07 06:56:52;;;;;;;8.45;1.27;;;4.20;99.90;;;;;;5089126;28;20418;-73
2022/12/07 06:59:17;;;;;;;8.05;1.60;;;4.10;99.90;;;;;;5088799;28;20417;-73
2022/12/07 07:01:43;;;;;;;7.07;1.42;;;4.20;99.90;;;;;;5051050;28;20430;-74
2022/12/07 07:04:09;;;;;;;7.38;1.30;;;4.20;99.90;;;;;;5089063;28;20491;-74
2022/12/07 07:06:34;;;;;;;8.00;1.45;;;4.30;99.90;;;;;;5067372;28;20427;-74
2022/12/07 07:09:00;;;;;;;8.15;1.23;;;4.20;99.90;;;;;;5082189;28;20426;-74
2022/12/07 07:11:26;;;;;;;8.30;1.63;;;4.20;99.90;;;;;;5088962;28;20501;-74
2022/12/07 07:13:51;;;;;;;10.77;2.00;;;4.10;99.90;;;;;;5073939;28;20427;-74
2022/12/07 07:16:17;;;;;;;8.65;2.20;;;4.00;99.90;;;;;;5087690;28;20429;-74
2022/12/07 07:18:43;;;;;;;10.27;2.10;;;4.20;99.90;;;;;;5053144;28;20559;-72
2022/12/07 07:21:09;;;;;;;12.27;3.00;;;4.00;99.90;;;;;;5062995;28;20837;-73
2022/12/07 07:23:34;;;;;;;9.37;2.10;;;4.10;99.90;;;;;;5088326;28;20501;-74
2022/12/07 07:26:00;;;;;;;9.43;1.83;;;3.90;99.90;;;;;;5070345;28;20800;-74
2022/12/07 07:28:26;;;;;;;13.30;2.70;;;4.00;99.90;;;;;;5069143;28;20429;-74
2022/12/07 07:30:51;;;;;;;11.55;2.33;;;3.90;99.90;;;;;;5085491;28;20493;-74
2022/12/07 07:33:17;;;;;;;11.63;1.98;;;3.90;99.90;;;;;;5088184;28;20454;-75
2022/12/07 07:35:43;;;;;;;10.18;1.88;;;4.00;99.90;;;;;;5069275;28;20455;-75
2022/12/07 07:38:08;;;;;;;12.45;2.15;;;3.90;99.90;;;;;;5066589;28;20878;-76
2022/12/07 07:40:35;;;;;;;9.25;1.63;;;4.00;99.90;;;;;;5070394;28;20414;-75
2022/12/07 07:43:01;;;;;;;9.90;2.27;;;4.00;99.90;;;;;;5070367;28;20441;-74
2022/12/07 07:45:27;;;;;;;14.73;2.50;;;4.00;99.90;;;;;;5086215;28;20768;-74
2022/12/07 07:47:53;;;;;;;10.43;2.20;;;3.90;99.90;;;;;;5067319;28;20425;-74
2022/12/07 07:50:20;;;;;;;8.90;2.30;;;3.80;99.90;;;;;;5059421;28;20428;-74
2022/12/07 07:52:46;;;;;;;10.88;2.65;;;3.70;99.90;;;;;;5085664;28;20452;-74
2022/12/07 07:55:12;;;;;;;9.30;1.63;;;3.90;99.90;;;;;;5070081;28;20472;-73
2022/12/07 07:57:39;;;;;;;15.45;3.85;;;3.90;99.90;;;;;;5052239;28;20438;-74
2022/12/07 08:00:08;;;;;;;9.93;1.75;;;3.80;99.90;;;;;;5086491;28;20402;-74
2022/12/07 08:02:34;;;;;;;13.67;2.77;;;3.80;99.90;;;;;;5051705;28;20474;-74
2022/12/07 08:04:59;;;;;;;8.27;1.73;;;4.10;99.90;;;;;;5069483;28;20418;-74
2022/12/07 08:07:26;;;;;;;12.93;2.27;;;4.00;99.90;;;;;;5057897;28;20762;-75
2022/12/07 08:09:52;;;;;;;14.38;2.92;;;3.90;99.90;;;;;;5075646;28;20434;-75
2022/12/07 08:12:17;;;;;;;9.85;2.72;;;4.00;99.90;;;;;;5068272;28;20436;-75
2022/12/07 08:14:43;;;;;;;12.07;1.90;;;4.10;99.90;;;;;;5088188;28;20496;-74
2022/12/07 08:17:09;;;;;;;10.13;1.75;;;4.00;99.90;;;;;;5086984;28;20485;-74
2022/12/07 08:19:36;;;;;;;15.68;2.60;;;4.10;99.90;;;;;;5067006;28;21355;-74
2022/12/07 08:22:02;;;;;;;10.55;1.92;;;4.10;99.90;;;;;;5069653;28;20463;-75
2022/12/07 08:24:28;;;;;;;14.00;2.20;;;3.90;99.90;;;;;;5087372;28;21028;-75
2022/12/07 08:26:53;;;;;;;12.00;2.17;;;4.10;99.90;;;;;;5047781;28;20410;-75
2022/12/07 08:29:19;;;;;;;11.27;1.70;;;4.00;99.90;;;;;;5074720;28;20441;-75
2022/12/07 08:31:45;;;;;;;11.02;1.80;;;4.00;99.90;;;;;;5087267;28;20410;-75
2022/12/07 08:34:12;;;;;;;10.80;2.57;;;4.10;99.90;;;;;;5069448;28;20484;-75
2022/12/07 08:36:38;;;;;;;11.30;2.70;;;4.10;99.90;;;;;;5081103;28;20465;-75
2022/12/07 08:39:03;;;;;;;10.65;2.78;;;4.20;99.90;;;;;;5069317;28;20457;-75
2022/12/07 08:41:29;;;;;;;12.10;2.83;;;4.30;99.90;;;;;;5063216;28;20833;-75
2022/12/07 08:43:55;;;;;;;12.48;3.00;;;4.30;99.90;;;;;;5067499;28;20404;-75
2022/12/07 08:46:26;;;;;;;10.77;4.23;;;4.30;99.90;;;;;;5074532;28;20522;-74
2022/12/07 08:49:15;;;;;;;13.50;3.13;;;4.40;99.90;;;;;;5068328;28;20425;-75
2022/12/07 08:51:41;;;;;;;10.10;2.25;;;4.30;99.90;;;;;;5083083;28;20433;-75
2022/12/07 08:54:10;;;;;;;8.88;2.13;;;4.20;99.90;;;;;;5064954;28;20422;-75
2022/12/07 08:56:36;;;;;;;7.93;2.15;;;4.30;99.90;;;;;;5068689;28;21068;-75
2022/12/07 08:59:04;;;;;;;10.38;1.95;;;4.30;99.90;;;;;;5070066;28;20466;-76
2022/12/07 09:01:30;;;;;;;9.10;1.85;;;4.40;99.90;;;;;;5051572;28;20406;-76
2022/12/07 09:03:55;;;;;;;12.73;2.30;;;4.50;99.90;;;;;;5068031;28;20961;-75
2022/12/07 09:06:21;;;;;;;9.23;2.17;;;4.30;99.90;;;;;;5080908;28;20475;-75
2022/12/07 09:08:51;;;;;;;11.13;2.20;;;4.30;99.90;;;;;;5066765;28;20794;-75
2022/12/07 09:11:16;;;;;;;14.32;2.80;;;4.30;99.90;;;;;;5075896;28;20514;-75
2022/12/07 09:13:42;;;;;;;11.87;2.07;;;4.20;99.90;;;;;;5070479;28;20480;-75
2022/12/07 09:16:08;;;;;;;8.20;1.70;;;4.40;99.90;;;;;;5068524;28;20430;-75
2022/12/07 09:18:33;;;;;;;6.10;1.47;;;4.20;99.90;;;;;;5091329;28;20426;-75
2022/12/07 09:20:59;;;;;;;8.10;1.30;;;4.30;99.90;;;;;;5056375;28;20409;-76
2022/12/07 09:23:25;;;;;;;4.37;1.00;;;4.50;99.90;;;;;;5071840;28;20452;-76
2022/12/07 09:25:51;;;;;;;8.15;2.33;;;4.40;99.90;;;;;;5090539;28;20418;-76
2022/12/07 09:28:16;;;;;;;5.28;1.45;;;4.50;99.90;;;;;;5056941;28;20720;-76
2022/12/07 09:30:47;;;;;;;7.15;1.15;;;4.40;99.90;;;;;;5072299;28;20414;-76
2022/12/07 09:33:13;;;;;;;9.37;1.53;;;4.60;99.90;;;;;;5073325;28;20780;-76
2022/12/07 09:35:43;;;;;;;6.97;1.60;;;4.50;99.90;;;;;;5071839;28;20418;-75
2022/12/07 09:38:09;;;;;;;10.77;2.50;;;4.60;99.90;;;;;;5071122;28;20429;-76
2022/12/07 09:40:34;;;;;;;5.72;1.45;;;4.50;99.90;;;;;;5090415;28;20436;-75
2022/12/07 09:43:00;;;;;;;7.45;1.65;;;4.60;99.90;;;;;;5088487;28;20426;-76
2022/12/07 09:45:35;;;;;;;10.38;2.75;;;4.40;99.90;;;;;;5087813;28;20413;-76
2022/12/07 09:48:03;;;;;;;4.97;1.25;;;4.40;99.90;;;;;;5089555;28;20414;-76
2022/12/07 09:50:30;;;;;;;5.57;1.08;;;4.30;99.90;;;;;;5090601;28;20428;-75
2022/12/07 09:53:08;;;;;;;7.25;1.70;;;4.40;99.90;;;;;;5072081;28;20838;-76
2022/12/07 09:55:35;;;;;;;9.98;1.50;;;4.80;99.90;;;;;;5089263;28;20455;-76
2022/12/07 09:58:00;;;;;;;10.35;1.85;;;4.90;99.90;;;;;;5089621;28;20524;-76
2022/12/07 10:00:28;;;;;;;8.17;2.37;;;5.00;99.90;;;;;;5071011;28;20506;-76
2022/12/07 10:02:59;;;;;;;11.20;2.10;;;5.00;99.90;;;;;;5071686;28;20775;-76
2022/12/07 10:05:45;;;;;;;6.18;1.95;;;5.00;99.90;;;;;;5071178;28;20498;-76
2022/12/07 10:08:12;;;;;;;7.23;1.80;;;5.20;99.90;;;;;;5071074;28;22958;-75
2022/12/07 10:10:39;;;;;;;10.55;2.75;;;5.20;99.90;;;;;;5090353;28;20410;-75
2022/12/07 10:13:19;;;;;;;9.57;2.67;;;5.20;99.90;;;;;;5089474;28;20449;-75
2022/12/07 10:15:48;;;;;;;11.30;2.13;;;5.30;99.90;;;;;;5085911;28;20406;-75
2022/12/07 10:18:19;;;;;;;10.03;2.50;;;5.30;99.90;;;;;;5085916;28;20418;-75
2022/12/07 10:20:46;;;;;;;8.32;1.73;;;5.20;99.90;;;;;;5076683;28;20460;-75
2022/12/07 10:23:18;;;;;;;9.57;1.42;;;5.40;99.90;;;;;;5066555;28;20425;-75
2022/12/07 10:25:44;;;;;;;8.10;2.00;;;5.30;99.90;;;;;;5069338;28;20822;-74
2022/12/07 10:28:12;;;;;;;11.55;2.13;;;5.50;99.90;;;;;;5084063;28;20426;-75
2022/12/07 10:30:58;;;;;;;8.27;2.13;;;5.50;99.90;;;;;;5066509;28;20438;-74
2022/12/07 10:33:30;;;;;;;8.30;1.33;;;5.50;99.90;;;;;;5049546;28;20468;-74
2022/12/07 10:35:56;;;;;;;7.43;1.42;;;5.60;99.90;;;;;;5082403;28;20456;-74
2022/12/07 10:38:27;;;;;;;12.02;2.63;;;5.70;99.90;;;;;;5088429;28;20814;-75
2022/12/07 10:41:07;;;;;;;9.25;1.77;;;5.70;99.90;;;;;;5064785;28;20428;-76
2022/12/07 10:43:33;;;;;;;6.80;1.20;;;5.80;99.90;;;;;;5088297;28;20425;-75
2022/12/07 10:46:10;;;;;;;6.00;1.58;;;5.90;99.90;;;;;;5087022;28;20410;-75
2022/12/07 10:48:50;;;;;;;7.23;1.33;;;5.90;99.90;;;;;;5053507;28;20437;-74
2022/12/07 10:51:40;;;;;;;5.63;1.70;;;6.10;99.90;;;;;;5068083;28;20479;-75
2022/12/07 10:54:27;;;;;;;10.80;2.70;;;6.20;99.90;;;;;;5053799;28;20406;-75
2022/12/07 10:57:05;;;;;;;10.82;2.38;;;6.30;99.90;;;;;;5042129;28;20417;-75
2022/12/07 10:59:48;;;;;;;7.72;1.45;;;6.20;99.90;;;;;;5069384;28;20430;-75
2022/12/07 11:02:24;;;;;;;6.95;2.17;;;6.10;99.90;;;;;;5066970;28;20419;-75
2022/12/07 11:05:11;;;;;;;4.32;0.95;;;6.20;99.90;;;;;;5067740;28;20441;-75
2022/12/07 11:07:55;;;;;;;11.68;2.13;;;6.30;99.90;;;;;;5066938;28;20495;-75
2022/12/07 11:10:29;;;;;;;7.50;0.82;;;6.20;99.90;;;;;;5056469;28;20417;-75
2022/12/07 11:13:15;;;;;;;4.43;1.00;;;6.30;99.90;;;;;;5039668;28;20455;-74
2022/12/07 11:15:55;;;;;;;8.45;1.48;;;6.40;99.90;;;;;;5065413;28;20537;-75
2022/12/07 11:18:37;;;;;;;10.32;2.30;;;6.30;99.90;;;;;;5066591;28;20436;-75
2022/12/07 11:21:40;;;;;;;6.27;1.17;;;6.30;99.90;;;;;;5048875;28;20488;-73
2022/12/07 11:24:23;;;;;;;3.03;0.77;;;6.20;99.90;;;;;;5066522;28;20488;-74
2022/12/07 11:27:00;;;;;;;5.70;0.98;;;6.20;99.90;;;;;;5064780;28;20498;-75
2022/12/07 11:29:43;;;;;;;2.78;0.55;;;6.20;99.90;;;;;;5049963;28;20399;-74
2022/12/07 11:32:15;;;;;;;5.05;0.70;;;6.30;99.90;;;;;;5065318;28;20426;-74
2022/12/07 11:34:53;;;;;;;3.65;0.80;;;6.20;99.90;;;;;;5061085;28;20495;-75
2022/12/07 11:37:25;;;;;;;4.60;0.98;;;6.10;99.90;;;;;;5065459;28;20511;-76
2022/12/07 11:39:56;;;;;;;5.88;1.35;;;6.10;99.90;;;;;;5066113;28;20427;-74
2022/12/07 11:42:27;;;;;;;2.78;0.70;;;6.20;99.90;;;;;;5067789;28;20501;-74
2022/12/07 11:45:17;;;;;;;3.10;0.57;;;6.30;99.90;;;;;;5065436;28;20429;-75
2022/12/07 11:47:55;;;;;;;3.03;0.50;;;6.50;99.90;;;;;;5075204;28;20415;-74
2022/12/07 11:50:24;;;;;;;6.07;1.20;;;6.60;99.90;;;;;;5067684;28;20430;-75
2022/12/07 11:53:38;;;;;;;5.28;0.80;;;6.70;99.90;;;;;;5047936;28;20472;-75
2022/12/07 11:56:12;;;;;;;4.80;1.55;;;6.80;99.90;;;;;;5057936;28;20781;-73
2022/12/07 11:58:47;;;;;;;6.10;1.30;;;6.70;99.90;;;;;;5066156;28;20435;-73
2022/12/07 12:01:31;;;;;;;4.63;1.40;;;6.60;99.90;;;;;;5064609;28;20451;-73
2022/12/07 12:04:09;;;;;;;6.32;1.50;;;6.50;99.90;;;;;;5084929;28;20923;-73
2022/12/07 12:06:35;;;;;;;8.05;1.30;;;6.40;99.90;;;;;;5065204;28;20479;-73
2022/12/07 12:09:36;;;;;;;4.70;1.60;;;6.20;99.90;;;;;;5085552;28;20410;-73
2022/12/07 12:12:30;;;;;;;4.07;1.00;;;5.50;99.90;;;;;;5066755;28;20426;-73
2022/12/07 12:15:05;;;;;;;7.43;1.42;;;5.30;99.90;;;;;;5069275;28;20406;-73
2022/12/07 12:17:52;;;;;;;4.72;1.27;;;5.00;99.90;;;;;;5045376;28;20428;-74
2022/12/07 12:20:24;;;;;;;5.85;1.23;;;5.10;99.90;;;;;;5060250;28;20413;-74
2022/12/07 12:23:13;;;;;;;5.50;1.23;;;4.90;99.90;;;;;;5064015;28;20745;-74
2022/12/07 12:25:54;;;;;;;6.35;2.20;;;4.90;99.90;;;;;;5067936;28;20409;-74
2022/12/07 12:28:38;;;;;;;4.72;1.08;;;4.90;99.90;;;;;;5051052;28;20406;-74
2022/12/07 12:31:29;;;;;;;3.25;0.75;;;5.00;99.90;;;;;;5065377;28;20429;-74
2022/12/07 12:34:00;;;;;;;5.97;0.98;;;4.90;99.90;;;;;;5038182;28;20977;-74
2022/12/07 12:36:34;;;;;;;4.43;0.90;;;5.00;99.90;;;;;;5062290;28;20471;-74
2022/12/07 12:39:18;;;;;;;4.00;0.80;;;5.00;99.90;;;;;;5066711;28;20509;-74
2022/12/07 12:44:15;;;;;;;6.05;1.25;;;5.10;99.90;;;;;;5069238;28;20839;-74
2022/12/07 12:46:57;;;;;;;4.33;1.13;;;5.10;99.90;;;;;;5088846;28;20508;-74
2022/12/07 12:49:23;;;;;;;5.70;0.77;;;5.20;99.90;;;;;;5090059;28;20605;-74
2022/12/07 12:51:57;;;;;;;4.97;0.70;;;5.40;99.90;;;;;;5070692;28;20978;-73
2022/12/07 12:54:28;;;;;;;5.40;1.10;;;5.40;99.90;;;;;;5077587;28;20416;-74
2022/12/07 12:57:26;;;;;;;5.05;0.68;;;5.50;99.90;;;;;;5070444;28;20434;-74
2022/12/07 12:59:51;;;;;;;6.10;0.85;;;5.40;99.90;;;;;;5081473;28;20418;-74
2022/12/07 13:02:26;;;;;;;5.57;0.90;;;5.30;99.90;;;;;;5090611;28;21366;-74
2022/12/07 13:05:02;;;;;;;3.80;1.20;;;5.20;99.90;;;;;;5067617;28;20435;-74
2022/12/07 13:07:46;;;;;;;5.70;1.10;;;5.20;99.90;;;;;;5071925;28;20422;-73
2022/12/07 13:10:24;;;;;;;3.73;0.60;;;5.30;99.90;;;;;;5076602;28;20521;-74
2022/12/07 13:13:12;;;;;;;4.97;0.65;;;5.30;99.90;;;;;;5069845;28;20418;-74
2022/12/07 13:16:14;;;;;;;3.60;1.00;;;5.20;99.90;;;;;;5071125;28;20410;-74
2022/12/07 13:18:40;;;;;;;4.60;1.90;;;5.30;99.90;;;;;;5065254;28;20436;-74